Signals | Log Session 10334
Paging Controls
KHz ID LSB USB Sec. Fmt. Location S/P ITU Region GSQ Power Logs Notes Latest by Listener Last Heard KM Miles Deg
370 BSV 396 409 10.23 DAID Besancon / La Veze FRA eu JN37cg 1 2022-09-23 2022-09-25 620 385 141
370 CUL 399 400 10 ID+6" gap Culdrose RNAS ENG eu IO70ib 1 APPROX GSQ 2022-09-23 2022-11-27 488 303 249
370 OTL 1019 1029 8.13 ID+4" gap Bucuresti / Otopeni ROU eu KN34an 1 SLOW KEYING 2022-09-23 2022-11-29 2001 1244 103
370 UMH 1015 1031 10.4 ID+6" gap Uromiyeh IRN as LM27mp 1 2022-09-23 2022-11-29 3738 2323 97
370.5 LB 408 405 4.97 Angelholm / Barkakra SWE eu JO66ji 1 2022-09-23 2022-11-21 914 568 51
371 BRS 403 397 10.08 Bremsnes for Kristiansund / Kvernberget NOR eu JP33tc 50 1 2022-09-23 2022-09-25 1317 818 14
371 LEV 1068 1065 7.6 ID+3" gap Savigliano / Levaldigi (CN) ITA eu JN34tn 1 Province : Cuneo - SENDING 2 EXTRA 'e' 2022-09-23 2022-12-02 934 581 146
371 MYN 1020 1019 10.08 ID+6" gap Munster / Osnabruck DEU eu JO32vd 25 1 2022-09-23 2022-09-25 459 285 82
371 RIV 998 6 9.93 ID+6" gap Codroipo / Rivolto (UD) ITA eu JN65lw 1 Province : Udine 2022-09-23 2022-12-02 1080 671 122
371 STR 958 1012 9.6 ID+5" gap Sintra POR eu IM58hv 1 2022-09-23 2022-11-17 1646 1023 213
372 CE 1023 1024 8.4 ID+6" gap Osijek / Cepin HRV eu JN95gm 50 1 2022-09-23 2022-10-12 1451 901 111
372 L 405 395 8.02 ID+7" gap Prague / Ruzyne / Liboc CZE eu JO70dc 1 2022-09-23 2022-09-26 940 584 96
372 NOR 1035 1034 8.44 ID+2" tone + gap Nordholz DEU eu JO43js 30 1 2022-02-25; changed from NDO to NOR 2022-09-23 2022-11-01 561 349 63
372 PY 399 408 10.27 ID+7" gap Le Puy / Loudes FRA eu JN15va 1 2022-09-23 2022-10-01 776 482 164
373 D 1019 1021 8.12 ID+7" gap Tirgu Mures ROU eu KN26el 1 SLOW KEYING - DRIFTING !!! 2022-09-23 2022-11-29 1782 1107 100
373 LCT 399 404 10.23 ID+7" gap Le Luc / Le Cannet FRA eu JN33ej 1 2022-09-23 2022-10-30 1010 628 155
373 MP 400 407 10.19 ID+7" gap Cherbourg / Maupertus FRA eu IN99hp 1 2022-09-23 2022-10-01 295 183 217
373 NW 401 400 8.12 ID+1" gap Maastricht / Beek HOL eu JO21wa 15 1 2022-09-23 2022-09-25 340 211 102
373 TN 1045 6.06 Thorshofn ISL eu IP26if 1 2022-09-23 2022-09-25 1849 1149 336
374 BGC 400 406 10.32 ID+6" gap Bergerac / Roumaniere FRA eu JN04ht 25 1 WAS RM 2022-09-23 2022-10-01 775 481 182
374 BL 402 402 7.04 ID+6" gap Forde / Bringeland NOR eu JP21vj 1 2022-09-23 2022-10-15 1107 688 13
374 DT 419 422 15.33 Saki UKR eu KN65tc 1 400 / 1020 Hz OFFSETS 2022-09-24 2022-10-29 2486 1544 94
374 FS 1025 1014 10.04 ID+8" gap Dresden DEU eu JO61we 1 2022-09-23 2022-09-26 884 549 89
374 KFT 1020 1021 20.08 ID+16" gap Klagenfurt AUT eu JN76go 1 2022-09-23 2022-12-02 1129 702 115
374 S 402 405 8.34 Mikkeli FIN eu KP31pp 1 2022-09-23 2022-11-29 1917 1191 44
375 BRG 1028 1036 10.29 ID+7" gap Bourges FRA eu JN17da 1 2022-09-23 2022-10-01 535 332 170
375 CV 399 406 10.41 ID+7" gap Calvi / Ste Catherine COR eu JN42jn 40 1 2022-09-23 2022-10-16 1175 730 147
375 DB 1020 1020 30 IDx3 Pochinok RUS eu KO97lr 1 400 / 1020 Hz OFFSETS 2022-09-23 2022-11-29 2481 1541 59
375 EKO 397 399 14.11 Ekofisk L XOE iw JO16on 1 WAS LF8L-544 2022-09-23 2022-11-21 550 342 13
375 GLA 401 410 10.23 ID+6" gap Gland for Geneva / Cointrain SUI eu JN36cj 1 2022-09-23 2022-09-26 703 437 146
375 KD 406 400 4.88 Kristanstad / Everod SWE eu JO75av 1 2022-09-23 2022-11-25 962 597 56
375 OO 402 395 10.03 ID+7" gap Oostende BEL eu JO11ke 1 2022-09-23 2022-09-26 137 85 117
375 RB 399 401 4.84 ID+2" gap Orebro SWE eu JO79md 1 2022-09-23 2022-11-25 1197 743 41
375 VM 1052 1051 3.43 ID+1" gap Vestmannaeyar ISL eu HP93uj 100 1 2022-09-23 2022-12-03 1800 1118 324
376 HIE 1012 1012 4.47 ID+2" gap Valverde / El Hierro CNR af IL17bt 1 WAS HR 2022-09-23 2022-11-10 3099 1925 218
376 HP 402 400 4 ID+2" gap Esbjerg DNK eu JO45em 1 2022-09-23 2022-09-26 634 394 46
376.5 ORI 1023 1027 5.86 ID+1" gap Orio al Serio (BG) ITA eu JN45wp 25 1 Province : Bergamo - NEGATIVE KEYING : EENR 2022-09-23 2022-11-27 935 581 133
377 OL 395 407 5.31 ID+2" gap Lulea / Kallax SWE eu KP05xo 1 2022-09-23 2022-11-20 1934 1201 29
377 SM 402 396 3.28 ID+1" gap Mora / Siljan SWE eu JP70ev 1 2022-09-23 2022-11-21 1297 806 33
378 KLY 404 408 7 ID+3" gap Killiney for Dublin IRL eu IO63wg 1 2022-09-23 2022-11-27 518 322 291
378 LU 396 405 10.12 ID+8" gap Le Luc / Le Cannet FRA eu JN33gj 25 1 2022-09-23 2022-09-28 1015 631 154
378 TA 1013 1021 7.04 ID+6" gap Timisoara / Giarmata ROU eu KN05ou 1 2022-09-23 2022-10-12 1604 997 106
378 TRI 1014 1019 7.25 ID+3" tone + 3" gap Split / Trogir HRV eu JN83cl 50 1 2022-09-23 2022-10-12 1454 903 123
378 WSN 398 401 8.09 ID+6" gap Weser DEU eu JO43ki 1 2022-09-23 2022-11-25 552 343 68
379 EB 401 404 10.3 ID+8" gap St Etienne / Boutheon FRA eu JN25dp 1 2022-09-23 2022-10-01 719 447 159
379 PIS 1024 1023 8.12 ID+3" gap Pisa (PI) ITA eu JN53do 25 1 Province : Pisa 2022-09-23 2022-09-24 1136 706 139
380 CBL 422 393 8.09 Campbeltown SCT eu IO75dk 1 2022-09-23 2022-11-21 607 377 314
380 FIL 1017 1022 13.23 ID+10" gap Horta / Faial Island AZR eu HM58pm 1 2022-09-23 2022-11-29 2735 1700 249
380 HO 401 407 10.19 ID+7" gap Colmar / Houssen FRA eu JN38qd 1 2022-09-23 2022-09-25 602 374 129
380 KN 1016 1016 10.02 ID+8" gap Beograd / Krnjesevci SRB eu KN04bv 1 2022-09-23 2022-10-12 1592 989 111
380 LG 1035 1036 8.33 UNID XUU xx 1 2022-09-23 2022-11-01
380 NL 1009 1015 8 Moscow / Sheremetievo RUS eu KO85pw 1 2022-09-23 2022-12-02 2388 1484 64
380 ULA 401 394 4.03 Ula / BP Platform XOE iw JO17kc 50 1 2022-09-23 2022-10-01 604 375 10
380 VNV 1016 1022 10.23 ID+6" gap Vilanova i la Geltru ESP eu JN01uf 1 2022-09-23 2022-12-03 1173 729 177
381 SIB 1010 1021 8.12 ID+9" gap Sibiu / Turnisor ROU eu KN25bs 1 SLOW CW 2022-09-23 2022-11-29 1803 1120 102
382 FW 1017 1018 4.85 Frankfurt / Raunheim DEU eu JO40fa 25 1 2022-09-23 2022-09-25 550 341 107
382 IJ 399 405 8.28 Ilmajoki FIN eu KP21ft 1 2022-09-24 2022-11-29 1790 1112 42
382 LAR 1006 1014 8.53 ID+5" gap Arruda POR eu IM58lx 1 2022-09-23 2022-12-03 1625 1010 212
382 SBG 1022 1018 10.04 ID+6" gap Salzburg / Oberndorf AUT eu JN67kx 50 1 2022-09-23 2022-12-03 940 584 112
383 EN 1036 1039 3.63 ID+2" gap Debrecen HNG eu KN07um 1 2022-09-23 2022-10-12 1549 963 99
383 ERK 401 404 5.42 Erken SWE eu JO99ev 1 2022-09-23 2022-11-25 1399 869 43
383 MAR 378 423 10.21 ID+8" gap Marseille / Provence FRA eu JN23nl 25 1 2022-09-23 2022-10-01 969 602 160
383 NA 989 1017 9.58 ID+7" tone Banja Luka BIH eu JN84pw 40 1 2022-09-23 2022-10-12 1411 877 116
384 AT 402 405 10.34 ID+9" gap Annecy / Meythet FRA eu JN35au 1 2022-09-23 2022-10-01 750 466 149
384 IAS 1021 1020 8.12 ID+5" gap Iasi ROU eu KN37td 1 2022-09-23 2022-11-29 1971 1225 94
384 PMR 34 17 22.02 ID+18" tone Pamiers / Les Pujols FRA eu JN03tc 1 keyed carrier NDB 2022-09-23 2022-11-21 964 599 177
384 SLG 405 410 8.16 IDx7 + 7" tone Sligo IRL eu IO54qg 1 2022-09-23 2022-11-18 708 440 296
384 TL 399 397 4.32 Aarhus DNK eu JO56hh 1 WAS TST-384 2022-09-23 2022-09-26 799 496 47
384 TY 409 392 4.35 Torsby / Fryklanda SWE eu JP60mc 1 2022-09-23 2022-11-14 1183 735 33